sensor_id;sensor_type;location;lat;lon;timestamp;temperature;humidity
56725;DHT22;42608;52.776;6.968;2023-05-10T00:00:57;14.80;99.90
56725;DHT22;42608;52.776;6.968;2023-05-10T00:03:23;14.80;99.90
56725;DHT22;42608;52.776;6.968;2023-05-10T00:05:48;14.80;99.90
56725;DHT22;42608;52.776;6.968;2023-05-10T00:08:14;14.80;99.90
56725;DHT22;42608;52.776;6.968;2023-05-10T00:10:40;14.80;99.90
56725;DHT22;42608;52.776;6.968;2023-05-10T00:13:06;14.70;99.90
56725;DHT22;42608;52.776;6.968;2023-05-10T00:15:31;14.70;99.90
56725;DHT22;42608;52.776;6.968;2023-05-10T00:17:57;14.60;99.90
56725;DHT22;42608;52.776;6.968;2023-05-10T00:20:23;14.50;99.90
56725;DHT22;42608;52.776;6.968;2023-05-10T00:22:48;14.40;99.90
56725;DHT22;42608;52.776;6.968;2023-05-10T00:25:14;14.40;99.90
56725;DHT22;42608;52.776;6.968;2023-05-10T00:27:39;14.30;99.90
56725;DHT22;42608;52.776;6.968;2023-05-10T00:30:05;14.30;99.90
56725;DHT22;42608;52.776;6.968;2023-05-10T00:32:31;14.30;99.90
56725;DHT22;42608;52.776;6.968;2023-05-10T00:34:57;14.20;99.90
56725;DHT22;42608;52.776;6.968;2023-05-10T00:37:23;14.20;99.90
56725;DHT22;42608;52.776;6.968;2023-05-10T00:39:48;14.10;99.90
56725;DHT22;42608;52.776;6.968;2023-05-10T00:42:14;14.00;99.90
56725;DHT22;42608;52.776;6.968;2023-05-10T00:44:39;13.90;99.90
56725;DHT22;42608;52.776;6.968;2023-05-10T00:47:05;13.90;99.90
56725;DHT22;42608;52.776;6.968;2023-05-10T00:49:31;13.80;99.90
56725;DHT22;42608;52.776;6.968;2023-05-10T00:51:56;13.80;99.90
56725;DHT22;42608;52.776;6.968;2023-05-10T00:54:22;13.80;99.90
56725;DHT22;42608;52.776;6.968;2023-05-10T00:56:48;13.80;99.90
56725;DHT22;42608;52.776;6.968;2023-05-10T00:59:15;13.70;99.90
56725;DHT22;42608;52.776;6.968;2023-05-10T01:01:42;13.70;99.90
56725;DHT22;42608;52.776;6.968;2023-05-10T01:04:08;13.70;99.90
56725;DHT22;42608;52.776;6.968;2023-05-10T01:06:34;13.60;99.90
56725;DHT22;42608;52.776;6.968;2023-05-10T01:09:00;13.60;99.90
56725;DHT22;42608;52.776;6.968;2023-05-10T01:11:25;13.50;99.90
56725;DHT22;42608;52.776;6.968;2023-05-10T01:13:52;13.50;99.90
56725;DHT22;42608;52.776;6.968;2023-05-10T01:16:20;13.50;99.90
56725;DHT22;42608;52.776;6.968;2023-05-10T01:18:46;13.50;99.90
56725;DHT22;42608;52.776;6.968;2023-05-10T01:26:07;13.50;99.90
56725;DHT22;42608;52.776;6.968;2023-05-10T01:31:26;13.40;99.90
56725;DHT22;42608;52.776;6.968;2023-05-10T01:34:07;13.40;99.90
56725;DHT22;42608;52.776;6.968;2023-05-10T01:36:47;13.40;99.90
56725;DHT22;42608;52.776;6.968;2023-05-10T01:41:55;13.40;99.90
56725;DHT22;42608;52.776;6.968;2023-05-10T01:49:55;13.40;99.90
56725;DHT22;42608;52.776;6.968;2023-05-10T01:52:19;13.40;99.90
56725;DHT22;42608;52.776;6.968;2023-05-10T01:55:00;13.40;99.90
56725;DHT22;42608;52.776;6.968;2023-05-10T01:57:27;13.40;99.90
56725;DHT22;42608;52.776;6.968;2023-05-10T01:59:57;13.40;99.90
56725;DHT22;42608;52.776;6.968;2023-05-10T02:02:24;13.30;99.90
56725;DHT22;42608;52.776;6.968;2023-05-10T02:04:51;13.30;99.90
56725;DHT22;42608;52.776;6.968;2023-05-10T02:07:18;13.30;99.90
56725;DHT22;42608;52.776;6.968;2023-05-10T02:09:44;13.30;99.90
56725;DHT22;42608;52.776;6.968;2023-05-10T02:12:13;13.30;99.90
56725;DHT22;42608;52.776;6.968;2023-05-10T02:14:39;13.30;99.90
56725;DHT22;42608;52.776;6.968;2023-05-10T02:17:05;13.30;99.90
56725;DHT22;42608;52.776;6.968;2023-05-10T02:19:31;13.30;99.90
56725;DHT22;42608;52.776;6.968;2023-05-10T02:21:57;13.30;99.90
56725;DHT22;42608;52.776;6.968;2023-05-10T02:24:24;13.30;99.90
56725;DHT22;42608;52.776;6.968;2023-05-10T02:26:51;13.20;99.90
56725;DHT22;42608;52.776;6.968;2023-05-10T02:29:19;13.20;99.90
56725;DHT22;42608;52.776;6.968;2023-05-10T02:31:45;13.20;99.90
56725;DHT22;42608;52.776;6.968;2023-05-10T02:34:11;13.20;99.90
56725;DHT22;42608;52.776;6.968;2023-05-10T02:36:37;13.20;99.90
56725;DHT22;42608;52.776;6.968;2023-05-10T02:39:03;13.20;99.90
56725;DHT22;42608;52.776;6.968;2023-05-10T02:41:30;13.20;99.90
56725;DHT22;42608;52.776;6.968;2023-05-10T02:43:57;13.10;99.90
56725;DHT22;42608;52.776;6.968;2023-05-10T02:46:24;13.20;99.90
56725;DHT22;42608;52.776;6.968;2023-05-10T02:48:50;13.10;99.90
56725;DHT22;42608;52.776;6.968;2023-05-10T02:51:16;13.20;99.90
56725;DHT22;42608;52.776;6.968;2023-05-10T02:53:43;13.10;99.90
56725;DHT22;42608;52.776;6.968;2023-05-10T02:56:11;13.10;99.90
56725;DHT22;42608;52.776;6.968;2023-05-10T02:58:38;13.10;99.90
56725;DHT22;42608;52.776;6.968;2023-05-10T03:04:39;13.10;99.90
56725;DHT22;42608;52.776;6.968;2023-05-10T03:07:05;13.00;99.90
56725;DHT22;42608;52.776;6.968;2023-05-10T03:09:31;13.00;99.90
56725;DHT22;42608;52.776;6.968;2023-05-10T03:14:30;13.00;99.90
56725;DHT22;42608;52.776;6.968;2023-05-10T03:17:11;13.00;99.90
56725;DHT22;42608;52.776;6.968;2023-05-10T03:19:45;13.00;99.90
56725;DHT22;42608;52.776;6.968;2023-05-10T03:22:13;13.00;99.90
56725;DHT22;42608;52.776;6.968;2023-05-10T03:24:42;13.00;99.90
56725;DHT22;42608;52.776;6.968;2023-05-10T03:27:08;13.00;99.90
56725;DHT22;42608;52.776;6.968;2023-05-10T03:29:34;12.90;99.90
56725;DHT22;42608;52.776;6.968;2023-05-10T03:32:00;12.90;99.90
56725;DHT22;42608;52.776;6.968;2023-05-10T03:34:25;12.90;99.90
56725;DHT22;42608;52.776;6.968;2023-05-10T03:36:51;12.90;99.90
56725;DHT22;42608;52.776;6.968;2023-05-10T03:39:16;12.90;99.90
56725;DHT22;42608;52.776;6.968;2023-05-10T03:41:42;12.90;99.90
56725;DHT22;42608;52.776;6.968;2023-05-10T03:44:08;12.90;99.90
56725;DHT22;42608;52.776;6.968;2023-05-10T03:46:33;12.90;99.90
56725;DHT22;42608;52.776;6.968;2023-05-10T03:48:59;12.90;99.90
56725;DHT22;42608;52.776;6.968;2023-05-10T03:51:24;12.90;99.90
56725;DHT22;42608;52.776;6.968;2023-05-10T03:53:53;12.90;99.90
56725;DHT22;42608;52.776;6.968;2023-05-10T03:56:19;12.90;99.90
56725;DHT22;42608;52.776;6.968;2023-05-10T03:58:46;12.90;99.90
56725;DHT22;42608;52.776;6.968;2023-05-10T04:01:11;12.90;99.90
56725;DHT22;42608;52.776;6.968;2023-05-10T04:03:37;12.90;99.90
56725;DHT22;42608;52.776;6.968;2023-05-10T04:06:03;12.90;99.90
56725;DHT22;42608;52.776;6.968;2023-05-10T04:08:29;12.90;99.90
56725;DHT22;42608;52.776;6.968;2023-05-10T04:10:55;12.90;99.90
56725;DHT22;42608;52.776;6.968;2023-05-10T04:13:29;12.90;99.90
56725;DHT22;42608;52.776;6.968;2023-05-10T04:15:55;12.80;99.90
56725;DHT22;42608;52.776;6.968;2023-05-10T04:18:20;12.80;99.90
56725;DHT22;42608;52.776;6.968;2023-05-10T04:20:46;12.80;99.90
56725;DHT22;42608;52.776;6.968;2023-05-10T04:23:11;12.80;99.90
56725;DHT22;42608;52.776;6.968;2023-05-10T04:25:37;12.80;99.90
56725;DHT22;42608;52.776;6.968;2023-05-10T04:28:02;12.80;99.90
56725;DHT22;42608;52.776;6.968;2023-05-10T04:30:28;12.80;99.90
56725;DHT22;42608;52.776;6.968;2023-05-10T04:32:54;12.80;99.90
56725;DHT22;42608;52.776;6.968;2023-05-10T04:35:20;12.80;99.90
56725;DHT22;42608;52.776;6.968;2023-05-10T04:37:45;12.80;99.90
56725;DHT22;42608;52.776;6.968;2023-05-10T04:40:11;12.80;99.90
56725;DHT22;42608;52.776;6.968;2023-05-10T04:42:36;12.80;99.90
56725;DHT22;42608;52.776;6.968;2023-05-10T04:45:05;12.80;99.90
56725;DHT22;42608;52.776;6.968;2023-05-10T04:47:30;12.70;99.90
56725;DHT22;42608;52.776;6.968;2023-05-10T04:49:56;12.70;99.90
56725;DHT22;42608;52.776;6.968;2023-05-10T04:52:21;12.70;99.90
56725;DHT22;42608;52.776;6.968;2023-05-10T04:54:47;12.70;99.90
56725;DHT22;42608;52.776;6.968;2023-05-10T04:57:12;12.70;99.90
56725;DHT22;42608;52.776;6.968;2023-05-10T04:59:38;12.70;99.90
56725;DHT22;42608;52.776;6.968;2023-05-10T05:02:04;12.70;99.90
56725;DHT22;42608;52.776;6.968;2023-05-10T05:04:30;12.70;99.90
56725;DHT22;42608;52.776;6.968;2023-05-10T05:06:56;12.70;99.90
56725;DHT22;42608;52.776;6.968;2023-05-10T05:09:21;12.70;99.90
56725;DHT22;42608;52.776;6.968;2023-05-10T05:11:47;12.70;99.90
56725;DHT22;42608;52.776;6.968;2023-05-10T05:14:13;12.70;99.90
56725;DHT22;42608;52.776;6.968;2023-05-10T05:16:39;12.80;99.90
56725;DHT22;42608;52.776;6.968;2023-05-10T05:19:04;12.80;99.90
56725;DHT22;42608;52.776;6.968;2023-05-10T05:21:30;12.80;99.90
56725;DHT22;42608;52.776;6.968;2023-05-10T05:23:57;12.70;99.90
56725;DHT22;42608;52.776;6.968;2023-05-10T05:26:23;12.70;99.90
56725;DHT22;42608;52.776;6.968;2023-05-10T05:28:48;12.70;99.90
56725;DHT22;42608;52.776;6.968;2023-05-10T05:31:17;12.70;99.90
56725;DHT22;42608;52.776;6.968;2023-05-10T05:33:43;12.80;99.90
56725;DHT22;42608;52.776;6.968;2023-05-10T05:36:08;12.70;99.90
56725;DHT22;42608;52.776;6.968;2023-05-10T05:38:34;12.70;99.90
56725;DHT22;42608;52.776;6.968;2023-05-10T05:41:00;12.70;99.90
56725;DHT22;42608;52.776;6.968;2023-05-10T05:43:25;12.70;99.90
56725;DHT22;42608;52.776;6.968;2023-05-10T05:45:54;12.80;99.90
56725;DHT22;42608;52.776;6.968;2023-05-10T05:48:20;12.70;99.90
56725;DHT22;42608;52.776;6.968;2023-05-10T05:50:45;12.70;99.90
56725;DHT22;42608;52.776;6.968;2023-05-10T05:53:11;12.70;99.90
56725;DHT22;42608;52.776;6.968;2023-05-10T05:55:37;12.70;99.90
56725;DHT22;42608;52.776;6.968;2023-05-10T05:58:02;12.70;99.90
56725;DHT22;42608;52.776;6.968;2023-05-10T06:00:28;12.70;99.90
56725;DHT22;42608;52.776;6.968;2023-05-10T06:02:54;12.70;99.90
56725;DHT22;42608;52.776;6.968;2023-05-10T06:05:19;12.70;99.90
56725;DHT22;42608;52.776;6.968;2023-05-10T06:07:46;12.70;99.90
56725;DHT22;42608;52.776;6.968;2023-05-10T06:10:11;12.70;99.90
56725;DHT22;42608;52.776;6.968;2023-05-10T06:12:37;12.70;99.90
56725;DHT22;42608;52.776;6.968;2023-05-10T06:15:03;12.70;99.90
56725;DHT22;42608;52.776;6.968;2023-05-10T06:17:28;12.80;99.90
56725;DHT22;42608;52.776;6.968;2023-05-10T06:19:54;12.80;99.90
56725;DHT22;42608;52.776;6.968;2023-05-10T06:22:20;12.80;99.90
56725;DHT22;42608;52.776;6.968;2023-05-10T06:24:48;12.80;99.90
56725;DHT22;42608;52.776;6.968;2023-05-10T06:27:13;12.80;99.90
56725;DHT22;42608;52.776;6.968;2023-05-10T06:29:39;12.80;99.90
56725;DHT22;42608;52.776;6.968;2023-05-10T06:32:04;12.80;99.90
56725;DHT22;42608;52.776;6.968;2023-05-10T06:34:30;12.80;99.90
56725;DHT22;42608;52.776;6.968;2023-05-10T06:36:56;12.80;99.90
56725;DHT22;42608;52.776;6.968;2023-05-10T06:39:22;12.80;99.90
56725;DHT22;42608;52.776;6.968;2023-05-10T06:41:47;12.90;99.90
56725;DHT22;42608;52.776;6.968;2023-05-10T06:44:13;12.90;99.90
56725;DHT22;42608;52.776;6.968;2023-05-10T06:46:39;12.90;99.90
56725;DHT22;42608;52.776;6.968;2023-05-10T06:49:04;12.90;99.90
56725;DHT22;42608;52.776;6.968;2023-05-10T06:51:30;12.90;99.90
56725;DHT22;42608;52.776;6.968;2023-05-10T06:53:56;13.00;99.90
56725;DHT22;42608;52.776;6.968;2023-05-10T06:56:21;13.00;99.90
56725;DHT22;42608;52.776;6.968;2023-05-10T06:58:47;13.00;99.90
56725;DHT22;42608;52.776;6.968;2023-05-10T07:01:13;13.00;99.90
56725;DHT22;42608;52.776;6.968;2023-05-10T07:03:38;13.00;99.90
56725;DHT22;42608;52.776;6.968;2023-05-10T07:06:04;13.00;99.90
56725;DHT22;42608;52.776;6.968;2023-05-10T07:08:30;13.00;99.90
56725;DHT22;42608;52.776;6.968;2023-05-10T07:11:03;13.10;99.90
56725;DHT22;42608;52.776;6.968;2023-05-10T07:13:29;13.10;99.90
56725;DHT22;42608;52.776;6.968;2023-05-10T07:15:55;13.10;99.90
56725;DHT22;42608;52.776;6.968;2023-05-10T07:18:21;13.10;99.90
56725;DHT22;42608;52.776;6.968;2023-05-10T07:20:46;13.10;99.90
56725;DHT22;42608;52.776;6.968;2023-05-10T07:23:12;13.10;99.90
56725;DHT22;42608;52.776;6.968;2023-05-10T07:25:37;13.10;99.90
56725;DHT22;42608;52.776;6.968;2023-05-10T07:28:03;13.10;99.90
56725;DHT22;42608;52.776;6.968;2023-05-10T07:30:29;13.20;99.90
56725;DHT22;42608;52.776;6.968;2023-05-10T07:32:54;13.10;99.90
56725;DHT22;42608;52.776;6.968;2023-05-10T07:35:20;13.20;99.90
56725;DHT22;42608;52.776;6.968;2023-05-10T07:37:46;13.20;99.90
56725;DHT22;42608;52.776;6.968;2023-05-10T07:40:11;13.20;99.90
56725;DHT22;42608;52.776;6.968;2023-05-10T07:42:37;13.20;99.90
56725;DHT22;42608;52.776;6.968;2023-05-10T07:45:03;13.20;99.90
56725;DHT22;42608;52.776;6.968;2023-05-10T07:47:29;13.30;99.90
56725;DHT22;42608;52.776;6.968;2023-05-10T07:49:54;13.30;99.90
56725;DHT22;42608;52.776;6.968;2023-05-10T07:52:20;13.30;99.90
56725;DHT22;42608;52.776;6.968;2023-05-10T07:54:46;13.30;99.90
56725;DHT22;42608;52.776;6.968;2023-05-10T07:57:11;13.30;99.90
56725;DHT22;42608;52.776;6.968;2023-05-10T07:59:39;13.40;99.90
56725;DHT22;42608;52.776;6.968;2023-05-10T08:02:05;13.40;99.90
56725;DHT22;42608;52.776;6.968;2023-05-10T08:04:31;13.40;99.90
56725;DHT22;42608;52.776;6.968;2023-05-10T08:06:57;13.40;99.90
56725;DHT22;42608;52.776;6.968;2023-05-10T08:09:22;13.40;99.90
56725;DHT22;42608;52.776;6.968;2023-05-10T08:11:49;13.30;99.90
56725;DHT22;42608;52.776;6.968;2023-05-10T08:14:15;13.30;99.90
56725;DHT22;42608;52.776;6.968;2023-05-10T08:16:40;13.40;99.90
56725;DHT22;42608;52.776;6.968;2023-05-10T08:19:06;13.40;99.90
56725;DHT22;42608;52.776;6.968;2023-05-10T08:21:31;13.40;99.90
56725;DHT22;42608;52.776;6.968;2023-05-10T08:23:57;13.40;99.90
56725;DHT22;42608;52.776;6.968;2023-05-10T08:26:23;13.50;99.90
56725;DHT22;42608;52.776;6.968;2023-05-10T08:28:48;13.50;99.90
56725;DHT22;42608;52.776;6.968;2023-05-10T08:31:14;13.50;99.90
56725;DHT22;42608;52.776;6.968;2023-05-10T08:33:40;13.50;99.90
56725;DHT22;42608;52.776;6.968;2023-05-10T08:36:06;13.50;99.90
56725;DHT22;42608;52.776;6.968;2023-05-10T08:38:32;13.50;99.90
56725;DHT22;42608;52.776;6.968;2023-05-10T08:40:57;13.50;99.90
56725;DHT22;42608;52.776;6.968;2023-05-10T08:43:26;13.50;99.90
56725;DHT22;42608;52.776;6.968;2023-05-10T08:45:51;13.50;99.90
56725;DHT22;42608;52.776;6.968;2023-05-10T08:48:18;13.60;99.90
56725;DHT22;42608;52.776;6.968;2023-05-10T08:50:44;13.60;99.90
56725;DHT22;42608;52.776;6.968;2023-05-10T08:53:11;13.50;99.90
56725;DHT22;42608;52.776;6.968;2023-05-10T08:55:37;13.50;99.90
56725;DHT22;42608;52.776;6.968;2023-05-10T08:58:06;13.50;99.90
56725;DHT22;42608;52.776;6.968;2023-05-10T09:00:32;13.50;99.90
56725;DHT22;42608;52.776;6.968;2023-05-10T09:02:58;13.60;99.90
56725;DHT22;42608;52.776;6.968;2023-05-10T09:05:24;13.50;99.90
56725;DHT22;42608;52.776;6.968;2023-05-10T09:07:50;13.60;99.90
56725;DHT22;42608;52.776;6.968;2023-05-10T09:10:16;13.60;99.90
56725;DHT22;42608;52.776;6.968;2023-05-10T09:12:42;13.70;99.90
56725;DHT22;42608;52.776;6.968;2023-05-10T09:15:09;13.70;99.90
56725;DHT22;42608;52.776;6.968;2023-05-10T09:17:35;13.70;99.90
56725;DHT22;42608;52.776;6.968;2023-05-10T09:20:04;13.80;99.90
56725;DHT22;42608;52.776;6.968;2023-05-10T09:22:30;13.80;99.90
56725;DHT22;42608;52.776;6.968;2023-05-10T09:25:13;13.80;99.90
56725;DHT22;42608;52.776;6.968;2023-05-10T09:27:39;13.80;99.90
56725;DHT22;42608;52.776;6.968;2023-05-10T09:30:06;13.80;99.90
56725;DHT22;42608;52.776;6.968;2023-05-10T09:32:38;13.80;99.90
56725;DHT22;42608;52.776;6.968;2023-05-10T09:35:11;13.80;99.90
56725;DHT22;42608;52.776;6.968;2023-05-10T09:37:40;13.70;99.90
56725;DHT22;42608;52.776;6.968;2023-05-10T09:40:13;13.70;99.90
56725;DHT22;42608;52.776;6.968;2023-05-10T09:42:42;13.80;99.90
56725;DHT22;42608;52.776;6.968;2023-05-10T09:45:15;13.70;99.90
56725;DHT22;42608;52.776;6.968;2023-05-10T09:47:41;13.70;99.90
56725;DHT22;42608;52.776;6.968;2023-05-10T09:50:06;13.70;99.90
56725;DHT22;42608;52.776;6.968;2023-05-10T09:55:18;13.70;99.90
56725;DHT22;42608;52.776;6.968;2023-05-10T09:57:43;13.80;99.90
56725;DHT22;42608;52.776;6.968;2023-05-10T10:00:09;13.80;99.90
56725;DHT22;42608;52.776;6.968;2023-05-10T10:02:35;13.90;99.90
56725;DHT22;42608;52.776;6.968;2023-05-10T10:05:01;13.90;99.90
56725;DHT22;42608;52.776;6.968;2023-05-10T10:07:28;14.00;99.90
56725;DHT22;42608;52.776;6.968;2023-05-10T10:09:54;14.00;99.90
56725;DHT22;42608;52.776;6.968;2023-05-10T10:12:20;14.10;99.90
56725;DHT22;42608;52.776;6.968;2023-05-10T10:14:46;14.10;99.90
56725;DHT22;42608;52.776;6.968;2023-05-10T10:17:12;14.20;99.90
56725;DHT22;42608;52.776;6.968;2023-05-10T10:19:38;14.30;99.90
56725;DHT22;42608;52.776;6.968;2023-05-10T10:22:04;14.40;99.90
56725;DHT22;42608;52.776;6.968;2023-05-10T10:24:30;14.40;99.90
56725;DHT22;42608;52.776;6.968;2023-05-10T10:26:56;14.40;99.90
56725;DHT22;42608;52.776;6.968;2023-05-10T10:31:57;14.40;99.90
56725;DHT22;42608;52.776;6.968;2023-05-10T10:34:28;14.40;99.90
56725;DHT22;42608;52.776;6.968;2023-05-10T10:36:55;14.40;99.90
56725;DHT22;42608;52.776;6.968;2023-05-10T10:39:21;14.40;99.90
56725;DHT22;42608;52.776;6.968;2023-05-10T10:49:22;14.50;99.90
56725;DHT22;42608;52.776;6.968;2023-05-10T10:54:32;14.50;99.90
56725;DHT22;42608;52.776;6.968;2023-05-10T10:57:13;14.60;99.90
56725;DHT22;42608;52.776;6.968;2023-05-10T10:59:42;14.60;99.90
56725;DHT22;42608;52.776;6.968;2023-05-10T11:02:09;14.60;99.90
56725;DHT22;42608;52.776;6.968;2023-05-10T11:04:41;14.60;99.90
56725;DHT22;42608;52.776;6.968;2023-05-10T11:07:20;14.60;99.90
56725;DHT22;42608;52.776;6.968;2023-05-10T11:09:46;14.60;99.90
56725;DHT22;42608;52.776;6.968;2023-05-10T11:12:12;14.60;99.90
56725;DHT22;42608;52.776;6.968;2023-05-10T11:14:37;14.70;99.90
56725;DHT22;42608;52.776;6.968;2023-05-10T11:17:21;14.80;99.90
56725;DHT22;42608;52.776;6.968;2023-05-10T11:22:31;14.70;99.90
56725;DHT22;42608;52.776;6.968;2023-05-10T11:25:14;14.70;99.90
56725;DHT22;42608;52.776;6.968;2023-05-10T11:27:39;14.70;99.90
56725;DHT22;42608;52.776;6.968;2023-05-10T11:30:06;14.60;99.90
56725;DHT22;42608;52.776;6.968;2023-05-10T11:32:31;14.60;99.90
56725;DHT22;42608;52.776;6.968;2023-05-10T11:34:57;14.70;99.90
56725;DHT22;42608;52.776;6.968;2023-05-10T11:37:23;14.70;99.90
56725;DHT22;42608;52.776;6.968;2023-05-10T11:39:48;14.70;99.90
56725;DHT22;42608;52.776;6.968;2023-05-10T11:42:14;14.70;99.90
56725;DHT22;42608;52.776;6.968;2023-05-10T11:44:40;14.70;99.90
56725;DHT22;42608;52.776;6.968;2023-05-10T11:47:06;14.70;99.90
56725;DHT22;42608;52.776;6.968;2023-05-10T11:49:32;14.80;99.90
56725;DHT22;42608;52.776;6.968;2023-05-10T11:52:04;14.80;99.90
56725;DHT22;42608;52.776;6.968;2023-05-10T11:54:30;14.80;99.90
56725;DHT22;42608;52.776;6.968;2023-05-10T11:56:56;14.90;99.90
56725;DHT22;42608;52.776;6.968;2023-05-10T11:59:22;14.90;99.90
56725;DHT22;42608;52.776;6.968;2023-05-10T12:01:47;14.90;99.90
56725;DHT22;42608;52.776;6.968;2023-05-10T12:04:13;14.90;99.90
56725;DHT22;42608;52.776;6.968;2023-05-10T12:06:39;14.90;99.90
56725;DHT22;42608;52.776;6.968;2023-05-10T12:09:06;15.00;99.90
56725;DHT22;42608;52.776;6.968;2023-05-10T12:11:32;15.00;99.90
56725;DHT22;42608;52.776;6.968;2023-05-10T12:14:03;15.00;99.90
56725;DHT22;42608;52.776;6.968;2023-05-10T12:16:29;15.00;99.90
56725;DHT22;42608;52.776;6.968;2023-05-10T12:18:59;15.00;99.90
56725;DHT22;42608;52.776;6.968;2023-05-10T12:21:25;15.00;99.90
56725;DHT22;42608;52.776;6.968;2023-05-10T12:24:00;15.10;99.90
56725;DHT22;42608;52.776;6.968;2023-05-10T12:26:27;15.10;99.90
56725;DHT22;42608;52.776;6.968;2023-05-10T12:29:11;15.10;99.90
56725;DHT22;42608;52.776;6.968;2023-05-10T12:31:53;15.20;99.90
56725;DHT22;42608;52.776;6.968;2023-05-10T12:34:23;15.20;99.90
56725;DHT22;42608;52.776;6.968;2023-05-10T12:36:52;15.20;99.90
56725;DHT22;42608;52.776;6.968;2023-05-10T12:39:18;15.20;99.90
56725;DHT22;42608;52.776;6.968;2023-05-10T12:41:43;15.20;99.90
56725;DHT22;42608;52.776;6.968;2023-05-10T12:44:09;15.20;99.90
56725;DHT22;42608;52.776;6.968;2023-05-10T12:46:34;15.20;99.90
56725;DHT22;42608;52.776;6.968;2023-05-10T12:49:00;15.20;99.90
56725;DHT22;42608;52.776;6.968;2023-05-10T12:51:26;15.10;99.90
56725;DHT22;42608;52.776;6.968;2023-05-10T12:53:52;15.10;99.90
56725;DHT22;42608;52.776;6.968;2023-05-10T12:56:18;15.10;99.90
56725;DHT22;42608;52.776;6.968;2023-05-10T12:58:43;15.00;99.90
56725;DHT22;42608;52.776;6.968;2023-05-10T13:01:16;15.00;99.90
56725;DHT22;42608;52.776;6.968;2023-05-10T13:03:42;15.10;99.90
56725;DHT22;42608;52.776;6.968;2023-05-10T13:06:08;15.10;99.90
56725;DHT22;42608;52.776;6.968;2023-05-10T13:08:34;15.10;99.90
56725;DHT22;42608;52.776;6.968;2023-05-10T13:11:00;15.10;99.90
56725;DHT22;42608;52.776;6.968;2023-05-10T13:13:25;15.10;99.90
56725;DHT22;42608;52.776;6.968;2023-05-10T13:15:51;15.10;99.90
56725;DHT22;42608;52.776;6.968;2023-05-10T13:18:17;15.10;99.90
56725;DHT22;42608;52.776;6.968;2023-05-10T13:20:42;15.20;99.90
56725;DHT22;42608;52.776;6.968;2023-05-10T13:23:09;15.20;99.90
56725;DHT22;42608;52.776;6.968;2023-05-10T13:25:35;15.20;99.90
56725;DHT22;42608;52.776;6.968;2023-05-10T13:28:01;15.20;99.90
56725;DHT22;42608;52.776;6.968;2023-05-10T13:30:26;15.30;99.90
56725;DHT22;42608;52.776;6.968;2023-05-10T13:32:52;15.30;99.90
56725;DHT22;42608;52.776;6.968;2023-05-10T13:35:17;15.40;99.90
56725;DHT22;42608;52.776;6.968;2023-05-10T13:37:43;15.40;99.90
56725;DHT22;42608;52.776;6.968;2023-05-10T13:40:08;15.40;99.90
56725;DHT22;42608;52.776;6.968;2023-05-10T13:42:34;15.50;99.90
56725;DHT22;42608;52.776;6.968;2023-05-10T13:45:00;15.50;99.90
56725;DHT22;42608;52.776;6.968;2023-05-10T13:47:27;15.50;99.90
56725;DHT22;42608;52.776;6.968;2023-05-10T13:49:52;15.50;99.90
56725;DHT22;42608;52.776;6.968;2023-05-10T13:52:18;15.60;99.90
56725;DHT22;42608;52.776;6.968;2023-05-10T13:54:44;15.60;99.90
56725;DHT22;42608;52.776;6.968;2023-05-10T13:57:09;15.60;99.90
56725;DHT22;42608;52.776;6.968;2023-05-10T13:59:37;15.60;99.90
56725;DHT22;42608;52.776;6.968;2023-05-10T14:02:03;15.60;99.90
56725;DHT22;42608;52.776;6.968;2023-05-10T14:04:29;15.60;99.90
56725;DHT22;42608;52.776;6.968;2023-05-10T14:06:54;15.60;99.90
56725;DHT22;42608;52.776;6.968;2023-05-10T14:09:20;15.70;99.90
56725;DHT22;42608;52.776;6.968;2023-05-10T14:11:46;15.70;99.90
56725;DHT22;42608;52.776;6.968;2023-05-10T14:14:12;15.70;99.90
56725;DHT22;42608;52.776;6.968;2023-05-10T14:16:41;15.70;99.90
56725;DHT22;42608;52.776;6.968;2023-05-10T14:19:06;15.70;99.90
56725;DHT22;42608;52.776;6.968;2023-05-10T14:21:32;15.70;99.90
56725;DHT22;42608;52.776;6.968;2023-05-10T14:23:58;15.70;99.90
56725;DHT22;42608;52.776;6.968;2023-05-10T14:26:24;15.70;99.90
56725;DHT22;42608;52.776;6.968;2023-05-10T14:28:49;15.60;99.90
56725;DHT22;42608;52.776;6.968;2023-05-10T14:31:15;15.60;99.90
56725;DHT22;42608;52.776;6.968;2023-05-10T14:33:42;15.60;99.90
56725;DHT22;42608;52.776;6.968;2023-05-10T14:36:08;15.70;99.90
56725;DHT22;42608;52.776;6.968;2023-05-10T14:38:34;15.70;99.90
56725;DHT22;42608;52.776;6.968;2023-05-10T14:40:59;15.70;99.90
56725;DHT22;42608;52.776;6.968;2023-05-10T14:43:25;15.60;99.90
56725;DHT22;42608;52.776;6.968;2023-05-10T14:45:50;15.60;99.90
56725;DHT22;42608;52.776;6.968;2023-05-10T14:48:16;15.60;99.90
56725;DHT22;42608;52.776;6.968;2023-05-10T14:50:43;15.50;99.90
56725;DHT22;42608;52.776;6.968;2023-05-10T14:53:08;15.50;99.90
56725;DHT22;42608;52.776;6.968;2023-05-10T14:55:34;15.50;99.90
56725;DHT22;42608;52.776;6.968;2023-05-10T14:58:01;15.60;99.90
56725;DHT22;42608;52.776;6.968;2023-05-10T15:00:27;15.60;99.90
56725;DHT22;42608;52.776;6.968;2023-05-10T15:02:53;15.60;99.90
56725;DHT22;42608;52.776;6.968;2023-05-10T15:05:18;15.60;99.90
56725;DHT22;42608;52.776;6.968;2023-05-10T15:07:44;15.60;99.90
56725;DHT22;42608;52.776;6.968;2023-05-10T15:10:10;15.60;99.90
56725;DHT22;42608;52.776;6.968;2023-05-10T15:12:36;15.60;99.90
56725;DHT22;42608;52.776;6.968;2023-05-10T15:15:02;15.60;99.90
56725;DHT22;42608;52.776;6.968;2023-05-10T15:17:28;15.60;99.90
56725;DHT22;42608;52.776;6.968;2023-05-10T15:19:53;15.60;99.90
56725;DHT22;42608;52.776;6.968;2023-05-10T15:22:19;15.60;99.90
56725;DHT22;42608;52.776;6.968;2023-05-10T15:24:45;15.60;99.90
56725;DHT22;42608;52.776;6.968;2023-05-10T15:27:10;15.60;99.90
56725;DHT22;42608;52.776;6.968;2023-05-10T15:29:36;15.70;99.90
56725;DHT22;42608;52.776;6.968;2023-05-10T15:32:01;15.60;99.90
56725;DHT22;42608;52.776;6.968;2023-05-10T15:34:28;15.70;99.90
56725;DHT22;42608;52.776;6.968;2023-05-10T15:36:53;15.70;99.90
56725;DHT22;42608;52.776;6.968;2023-05-10T15:39:19;15.70;99.90
56725;DHT22;42608;52.776;6.968;2023-05-10T15:41:44;15.70;99.90
56725;DHT22;42608;52.776;6.968;2023-05-10T15:44:10;15.70;99.90
56725;DHT22;42608;52.776;6.968;2023-05-10T15:46:36;15.70;99.90
56725;DHT22;42608;52.776;6.968;2023-05-10T15:49:03;15.60;99.90
56725;DHT22;42608;52.776;6.968;2023-05-10T15:51:28;15.70;99.90
56725;DHT22;42608;52.776;6.968;2023-05-10T15:53:54;15.70;99.90
56725;DHT22;42608;52.776;6.968;2023-05-10T15:56:20;15.70;99.90
56725;DHT22;42608;52.776;6.968;2023-05-10T15:58:45;15.70;99.90
56725;DHT22;42608;52.776;6.968;2023-05-10T16:01:11;15.80;99.90
56725;DHT22;42608;52.776;6.968;2023-05-10T16:03:37;15.70;99.90
56725;DHT22;42608;52.776;6.968;2023-05-10T16:06:03;15.80;99.90